首页
METAR-TAF:

METAR-TAF

机场 :

Peterborough, 安大略省, 加拿大

纬度: 44-14N, 经度: 078-22W, 海拔: 191米

当前天气观测

该预报发布于31分钟前的13:00 UTC
风速3节,风向多变
温度 20°C
湿度 64%
气压 1015 hPa
能見度: 14.5公里
天空无云

METAR: CYPQ 181300Z AUTO VRB03KT 9SM CLR 20/13 A2996 RMK SLP146 DENSITY ALT 1200FT

时间: 09:31 (13:31 UTC)

预报

该预报发布于3小时和53分钟前的09:38 UTC
预报有效从18日的 10点(UTC)到 18日的 22点(UTC)
风速3节,风向多变
能見度: 10公里
多云层高于10000英尺
从 18日的 1700点(UTC)
风速5节,风向南转南东
能見度: 10公里
散云层高于5000英尺

TAF: CYPQ 180938Z 1810/1822 VRB03KT P6SM BKN100 FM181700 15005KT P6SM SCT050 RMK FCST BASED ON AUTO OBS. NXT FCST BY 181400Z

超过4000个机场的气象观测和天气预报(METAR&TAF报告)。

可查询的气象台以黄色和红色小点在地图上表示。

将鼠标移到小点上方,可查看气象台名称。

然后点击查看天气观测和预报。

如需切换地图:点击带黑十字的绿色按钮放大地图;点击带横线的绿色按钮缩小地图;或者点击绿色箭头查看邻近地区的地图。


METAR-TAF: